createdAt,value
2019-05-23T00:01:16.159Z,26.74
2019-05-23T00:03:27.378Z,26.75
2019-05-23T00:05:44.649Z,26.78
2019-05-23T00:07:53.790Z,26.69
2019-05-23T00:10:06.009Z,26.75
2019-05-23T00:12:32.618Z,26.75
2019-05-23T00:14:51.339Z,26.76
2019-05-23T00:16:58.953Z,26.76
2019-05-23T00:19:07.486Z,26.68
2019-05-23T00:21:16.383Z,26.75
2019-05-23T00:23:23.755Z,26.63
2019-05-23T00:25:35.355Z,26.59
2019-05-23T00:27:44.316Z,26.68
2019-05-23T00:29:53.754Z,26.67
2019-05-23T00:32:18.907Z,26.71
2019-05-23T00:34:27.284Z,26.67
2019-05-23T00:36:36.156Z,26.56
2019-05-23T00:38:44.646Z,26.52
2019-05-23T00:40:53.364Z,26.54
2019-05-23T00:43:03.045Z,26.55
2019-05-23T00:45:13.244Z,26.70
2019-05-23T00:47:20.717Z,26.51
2019-05-23T00:49:29.675Z,26.51
2019-05-23T00:51:37.716Z,26.52
2019-05-23T00:53:45.872Z,26.53
2019-05-23T00:55:54.226Z,26.63
2019-05-23T00:58:03.424Z,26.71
2019-05-23T01:00:13.482Z,26.63
2019-05-23T01:02:21.637Z,26.59
2019-05-23T01:04:30.375Z,26.60
2019-05-23T01:06:39.058Z,26.47
2019-05-23T01:08:48.301Z,26.45
2019-05-23T01:10:57.007Z,26.32
2019-05-23T01:13:04.625Z,26.26
2019-05-23T01:15:12.833Z,26.14
2019-05-23T01:17:22.356Z,26.06
2019-05-23T01:19:30.332Z,25.98
2019-05-23T01:22:02.851Z,26.00
2019-05-23T01:24:17.478Z,25.90
2019-05-23T01:26:25.709Z,25.80
2019-05-23T01:28:34.466Z,25.78
2019-05-23T01:30:45.272Z,25.78
2019-05-23T01:32:55.476Z,25.82
2019-05-23T01:35:05.133Z,25.71
2019-05-23T01:37:14.166Z,25.58
2019-05-23T01:39:21.572Z,25.55
2019-05-23T01:41:31.092Z,25.46
2019-05-23T01:43:39.542Z,25.48
2019-05-23T01:45:47.910Z,25.48
2019-05-23T01:47:55.367Z,25.46
2019-05-23T01:50:03.157Z,25.38
2019-05-23T01:52:12.176Z,25.21
2019-05-23T01:54:21.697Z,25.29
2019-05-23T01:56:30.119Z,25.29
2019-05-23T01:58:37.021Z,25.39
2019-05-23T02:00:44.938Z,25.39
2019-05-23T02:02:52.937Z,25.48
2019-05-23T02:05:01.173Z,25.53
2019-05-23T02:07:10.226Z,25.57
2019-05-23T02:09:17.411Z,25.61
2019-05-23T02:11:26.872Z,25.63
2019-05-23T02:13:34.273Z,25.65
2019-05-23T02:15:42.202Z,25.59
2019-05-23T02:17:49.525Z,25.62
2019-05-23T02:19:57.326Z,25.62
2019-05-23T02:22:05.020Z,25.62
2019-05-23T02:24:13.951Z,25.59
2019-05-23T02:26:24.142Z,25.58
2019-05-23T02:28:33.514Z,25.60
2019-05-23T02:30:40.836Z,25.56
2019-05-23T02:32:49.779Z,25.62
2019-05-23T02:34:57.037Z,25.62
2019-05-23T02:37:06.100Z,25.59
2019-05-23T02:39:44.123Z,25.39
2019-05-23T02:42:01.873Z,25.59
2019-05-23T02:44:13.282Z,25.56
2019-05-23T02:46:35.976Z,25.37
2019-05-23T02:48:44.620Z,25.32
2019-05-23T02:50:56.285Z,25.29
2019-05-23T02:53:04.045Z,25.43
2019-05-23T02:55:15.777Z,25.41
2019-05-23T02:57:27.263Z,25.47
2019-05-23T02:59:48.787Z,25.51
2019-05-23T03:02:32.935Z,25.46
2019-05-23T03:04:41.149Z,25.51
2019-05-23T03:06:49.817Z,25.49
2019-05-23T03:08:59.521Z,25.38
2019-05-23T03:11:46.303Z,25.51
2019-05-23T03:13:55.082Z,25.49
2019-05-23T03:16:04.120Z,25.51
2019-05-23T03:18:14.213Z,25.54
2019-05-23T03:20:22.595Z,25.56
2019-05-23T03:22:37.771Z,25.56
2019-05-23T03:24:45.755Z,25.58
2019-05-23T03:27:16.167Z,25.60
2019-05-23T03:29:24.238Z,25.60
2019-05-23T03:31:47.462Z,25.62
2019-05-23T03:33:56.393Z,25.59
2019-05-23T03:36:05.096Z,25.56
2019-05-23T03:38:13.326Z,25.53
2019-05-23T03:40:21.144Z,25.53
2019-05-23T03:42:29.613Z,25.51
2019-05-23T03:44:39.374Z,25.52
2019-05-23T03:46:50.336Z,25.42
2019-05-23T03:48:59.804Z,25.40
2019-05-23T03:51:10.023Z,25.33
2019-05-23T03:53:19.590Z,25.32
2019-05-23T03:55:28.714Z,25.36
2019-05-23T03:57:37.380Z,25.31
2019-05-23T03:59:47.002Z,25.37
2019-05-23T04:01:55.589Z,25.40
2019-05-23T04:04:05.102Z,25.43
2019-05-23T04:06:13.302Z,25.45
2019-05-23T04:08:21.277Z,25.46
2019-05-23T04:10:30.173Z,25.42
2019-05-23T04:12:38.584Z,25.38
2019-05-23T04:14:46.317Z,25.36
2019-05-23T04:16:54.499Z,25.30
2019-05-23T04:19:01.651Z,25.37
2019-05-23T04:21:09.182Z,25.29
2019-05-23T04:23:17.259Z,25.38
2019-05-23T04:25:25.872Z,25.38
2019-05-23T04:27:33.610Z,25.34
2019-05-23T04:29:40.736Z,25.38
2019-05-23T04:32:06.373Z,25.39
2019-05-23T04:33:57.913Z,25.36
2019-05-23T04:36:06.344Z,25.40
2019-05-23T04:38:14.075Z,25.43
2019-05-23T04:40:22.076Z,25.44
2019-05-23T04:42:30.002Z,25.47
2019-05-23T04:44:38.107Z,25.43
2019-05-23T04:46:46.949Z,25.39
2019-05-23T04:48:54.243Z,25.37
2019-05-23T04:51:02.108Z,25.23
2019-05-23T04:53:11.052Z,25.33
2019-05-23T04:55:19.631Z,25.37
2019-05-23T04:57:28.108Z,25.29
2019-05-23T04:59:36.605Z,25.31
2019-05-23T05:01:44.129Z,25.32
2019-05-23T05:03:52.683Z,25.34
2019-05-23T05:06:01.808Z,25.36
2019-05-23T05:08:10.241Z,25.45
2019-05-23T05:10:20.381Z,25.41
2019-05-23T05:12:28.192Z,25.42
2019-05-23T05:14:35.932Z,25.43
2019-05-23T05:16:44.122Z,25.43
2019-05-23T05:18:55.058Z,25.49
2019-05-23T05:21:01.782Z,25.49
2019-05-23T05:23:10.157Z,25.53
2019-05-23T05:25:19.533Z,25.47
2019-05-23T05:27:27.496Z,25.42
2019-05-23T05:29:34.702Z,25.37
2019-05-23T05:31:42.006Z,25.29
2019-05-23T05:33:49.452Z,25.28
2019-05-23T05:35:57.697Z,25.20
2019-05-23T05:38:06.218Z,25.24
2019-05-23T05:40:15.453Z,25.13
2019-05-23T05:42:22.836Z,24.94
2019-05-23T05:44:30.808Z,25.08
2019-05-23T05:46:38.536Z,25.04
2019-05-23T05:48:46.385Z,24.85
2019-05-23T05:50:54.863Z,24.86
2019-05-23T05:53:03.025Z,24.64
2019-05-23T05:55:11.064Z,24.56
2019-05-23T05:57:18.698Z,23.87
2019-05-23T05:59:25.956Z,24.37
2019-05-23T06:01:34.660Z,24.29
2019-05-23T06:03:43.218Z,24.19
2019-05-23T06:05:58.119Z,24.18
2019-05-23T06:08:07.159Z,24.09
2019-05-23T06:10:17.016Z,23.94
2019-05-23T06:12:24.461Z,24.01
2019-05-23T06:14:33.078Z,24.09
2019-05-23T06:16:41.738Z,24.16
2019-05-23T06:18:49.275Z,24.20
2019-05-23T06:20:57.481Z,24.22
2019-05-23T06:23:05.044Z,24.23
2019-05-23T06:25:13.423Z,24.26
2019-05-23T06:27:23.029Z,24.24
2019-05-23T06:29:30.251Z,24.20
2019-05-23T06:31:38.321Z,24.24
2019-05-23T06:33:46.543Z,24.25
2019-05-23T06:35:53.867Z,24.21
2019-05-23T06:38:01.755Z,24.25
2019-05-23T06:40:09.798Z,24.23
2019-05-23T06:42:18.580Z,24.24
2019-05-23T06:44:26.304Z,24.27
2019-05-23T06:46:33.472Z,24.25
2019-05-23T06:48:45.531Z,24.29
2019-05-23T06:50:50.215Z,24.25
2019-05-23T06:52:57.571Z,24.30
2019-05-23T06:55:04.983Z,24.29
2019-05-23T06:57:12.924Z,24.33
2019-05-23T06:59:20.622Z,24.32
2019-05-23T07:01:27.723Z,24.17
2019-05-23T07:03:42.327Z,24.13
2019-05-23T07:05:44.463Z,24.18
2019-05-23T07:07:51.638Z,24.09
2019-05-23T07:10:00.668Z,24.12
2019-05-23T07:12:09.667Z,24.08
2019-05-23T07:14:17.468Z,23.94
2019-05-23T07:16:24.726Z,24.04
2019-05-23T07:18:33.290Z,24.12
2019-05-23T07:20:40.586Z,24.14
2019-05-23T07:22:47.972Z,24.16
2019-05-23T07:24:58.775Z,24.17
2019-05-23T07:27:04.597Z,24.17
2019-05-23T07:29:13.420Z,24.17
2019-05-23T07:31:21.886Z,24.17
2019-05-23T07:33:29.243Z,24.19
2019-05-23T07:35:36.695Z,24.19
2019-05-23T07:37:44.104Z,24.22
2019-05-23T07:39:51.243Z,24.21
2019-05-23T07:41:58.349Z,24.21
2019-05-23T07:44:06.283Z,24.25
2019-05-23T07:46:13.573Z,24.22
2019-05-23T07:48:21.294Z,24.21
2019-05-23T07:50:28.610Z,24.20
2019-05-23T07:52:37.094Z,24.22
2019-05-23T07:55:03.065Z,24.21
2019-05-23T07:57:13.828Z,24.21
2019-05-23T07:59:21.319Z,24.15
2019-05-23T08:01:30.758Z,24.17
2019-05-23T08:03:39.130Z,24.14
2019-05-23T08:05:48.076Z,24.07
2019-05-23T08:07:56.569Z,24.06
2019-05-23T08:10:03.843Z,24.03
2019-05-23T08:12:11.267Z,23.97
2019-05-23T08:14:18.542Z,23.88
2019-05-23T08:16:26.660Z,24.01
2019-05-23T08:18:33.851Z,24.03
2019-05-23T08:20:40.890Z,24.04
2019-05-23T08:22:48.987Z,24.02
2019-05-23T08:24:56.722Z,24.00
2019-05-23T08:27:05.812Z,24.00
2019-05-23T08:29:25.429Z,24.00
2019-05-23T08:31:22.632Z,23.98
2019-05-23T08:33:29.949Z,23.96
2019-05-23T08:35:37.797Z,23.90
2019-05-23T08:37:45.417Z,23.91
2019-05-23T08:39:52.938Z,23.88
2019-05-23T08:42:00.795Z,23.92
2019-05-23T08:44:11.382Z,23.94
2019-05-23T08:46:17.449Z,23.97
2019-05-23T08:48:25.353Z,23.99
2019-05-23T08:50:32.481Z,23.99
2019-05-23T08:52:39.650Z,24.02
2019-05-23T08:54:46.932Z,24.01
2019-05-23T08:56:54.489Z,24.02
2019-05-23T08:59:02.013Z,24.02
2019-05-23T09:01:09.872Z,24.05
2019-05-23T09:03:18.148Z,24.02
2019-05-23T09:05:26.803Z,24.01
2019-05-23T09:07:34.337Z,23.98
2019-05-23T09:09:42.104Z,24.03
2019-05-23T09:11:49.607Z,24.07
2019-05-23T09:13:57.223Z,24.08
2019-05-23T09:16:04.667Z,24.01
2019-05-23T09:18:12.580Z,23.97
2019-05-23T09:20:20.045Z,23.94
2019-05-23T09:22:27.397Z,23.89
2019-05-23T09:24:34.574Z,23.84
2019-05-23T09:26:42.038Z,23.88
2019-05-23T09:28:49.054Z,23.89
2019-05-23T09:30:56.323Z,23.86
2019-05-23T09:33:04.497Z,23.85
2019-05-23T09:35:20.939Z,23.83
2019-05-23T09:37:21.767Z,23.85
2019-05-23T09:39:29.057Z,23.84
2019-05-23T09:41:36.913Z,23.83
2019-05-23T09:43:44.900Z,23.82
2019-05-23T09:45:52.804Z,23.81
2019-05-23T09:48:01.002Z,23.78
2019-05-23T09:50:11.006Z,23.77
2019-05-23T09:52:18.433Z,23.78
2019-05-23T09:54:26.154Z,23.78
2019-05-23T09:56:33.498Z,23.74
2019-05-23T09:58:41.411Z,23.69
2019-05-23T10:00:48.718Z,23.61
2019-05-23T10:02:57.164Z,23.60
2019-05-23T10:05:04.352Z,23.55
2019-05-23T10:07:11.761Z,23.59
2019-05-23T10:09:19.069Z,23.61
2019-05-23T10:11:26.888Z,23.61
2019-05-23T10:13:39.176Z,23.62
2019-05-23T10:16:17.592Z,23.58
2019-05-23T10:18:25.339Z,23.53
2019-05-23T10:20:36.536Z,23.58
2019-05-23T10:22:43.825Z,23.63
2019-05-23T10:24:51.842Z,23.56
2019-05-23T10:26:59.366Z,23.63
2019-05-23T10:29:06.846Z,23.61
2019-05-23T10:31:15.231Z,23.68
2019-05-23T10:33:23.311Z,23.61
2019-05-23T10:35:31.413Z,23.63
2019-05-23T10:37:38.796Z,23.64
2019-05-23T10:39:49.408Z,23.64
2019-05-23T10:41:57.777Z,23.65
2019-05-23T10:44:05.478Z,23.64
2019-05-23T10:46:13.184Z,23.64
2019-05-23T10:48:21.771Z,23.65
2019-05-23T10:50:43.738Z,23.62
2019-05-23T10:52:39.740Z,23.64
2019-05-23T10:54:46.863Z,23.61
2019-05-23T10:56:54.090Z,23.63
2019-05-23T10:59:01.270Z,23.66
2019-05-23T11:01:09.404Z,23.61
2019-05-23T11:03:17.551Z,23.63
2019-05-23T11:05:25.765Z,23.65
2019-05-23T11:07:34.077Z,23.65
2019-05-23T11:09:41.451Z,23.63
2019-05-23T11:11:48.670Z,23.68
2019-05-23T11:13:57.383Z,23.65
2019-05-23T11:16:04.806Z,23.52
2019-05-23T11:18:12.441Z,23.60
2019-05-23T11:20:20.924Z,23.54
2019-05-23T11:22:28.900Z,23.76
2019-05-23T11:24:36.536Z,24.00
2019-05-23T11:26:43.718Z,24.18
2019-05-23T11:28:50.973Z,24.42
2019-05-23T11:31:00.270Z,24.59
2019-05-23T11:33:07.572Z,24.71
2019-05-23T11:35:16.650Z,24.93
2019-05-23T11:37:25.256Z,25.03
2019-05-23T11:39:33.688Z,25.21
2019-05-23T11:41:41.142Z,25.33
2019-05-23T11:43:49.854Z,25.35
2019-05-23T11:46:11.229Z,25.44
2019-05-23T11:48:19.334Z,25.36
2019-05-23T11:50:26.604Z,25.18
2019-05-23T11:52:33.920Z,25.08
2019-05-23T11:54:41.571Z,24.98
2019-05-23T11:56:49.389Z,24.82
2019-05-23T11:59:00.928Z,24.82
2019-05-23T12:01:23.971Z,24.77
2019-05-23T12:03:31.173Z,24.71
2019-05-23T12:05:39.114Z,24.66
2019-05-23T12:07:47.145Z,24.61
2019-05-23T12:09:54.626Z,24.59
2019-05-23T12:12:01.840Z,24.54
2019-05-23T12:14:10.008Z,24.56
2019-05-23T12:16:17.726Z,24.50
2019-05-23T12:18:24.969Z,24.47
2019-05-23T12:20:32.278Z,24.39
2019-05-23T12:22:40.484Z,24.41
2019-05-23T12:24:48.049Z,24.40
2019-05-23T12:26:55.824Z,24.41
2019-05-23T12:29:03.304Z,24.37
2019-05-23T12:31:10.598Z,24.30
2019-05-23T12:33:17.969Z,24.16
2019-05-23T12:35:25.078Z,23.94
2019-05-23T12:37:32.216Z,23.88
2019-05-23T12:39:39.419Z,23.91
2019-05-23T12:41:47.293Z,23.97
2019-05-23T12:43:54.698Z,23.83
2019-05-23T12:46:01.995Z,23.95
2019-05-23T12:48:16.598Z,24.00
2019-05-23T12:50:26.983Z,24.04
2019-05-23T12:52:34.883Z,24.19
2019-05-23T12:54:44.363Z,24.25
2019-05-23T12:56:52.888Z,24.33
2019-05-23T12:59:01.140Z,24.34
2019-05-23T13:01:10.139Z,24.36
2019-05-23T13:03:17.725Z,24.32
2019-05-23T13:05:28.553Z,24.37
2019-05-23T13:07:38.703Z,24.34
2019-05-23T13:09:46.868Z,24.17
2019-05-23T13:11:54.690Z,24.13
2019-05-23T13:14:02.659Z,24.24
2019-05-23T13:16:11.885Z,24.36
2019-05-23T13:18:19.757Z,24.38
2019-05-23T13:20:28.368Z,24.27
2019-05-23T13:22:36.335Z,24.22
2019-05-23T13:24:52.458Z,24.32
2019-05-23T13:26:53.638Z,24.28
2019-05-23T13:29:02.053Z,24.31
2019-05-23T13:31:10.460Z,24.34
2019-05-23T13:33:17.815Z,24.36
2019-05-23T13:35:25.867Z,24.31
2019-05-23T13:37:33.111Z,24.43
2019-05-23T13:39:39.966Z,24.45
2019-05-23T13:41:47.671Z,24.48
2019-05-23T13:43:55.566Z,24.47
2019-05-23T13:46:03.393Z,24.41
2019-05-23T13:48:11.262Z,24.44
2019-05-23T13:50:19.430Z,24.45
2019-05-23T13:52:26.663Z,24.51
2019-05-23T13:54:36.434Z,24.53
2019-05-23T13:56:47.504Z,24.53
2019-05-23T13:58:53.287Z,24.46
2019-05-23T14:01:01.474Z,24.52
2019-05-23T14:03:09.499Z,24.53
2019-05-23T14:05:19.501Z,24.54
2019-05-23T14:07:28.596Z,24.54
2019-05-23T14:09:36.697Z,24.56
2019-05-23T14:11:44.203Z,24.56
2019-05-23T14:13:59.553Z,24.56
2019-05-23T14:16:01.975Z,24.59
2019-05-23T14:18:09.923Z,24.56
2019-05-23T14:20:17.944Z,24.58
2019-05-23T14:22:25.362Z,24.59
2019-05-23T14:24:37.302Z,24.60
2019-05-23T14:26:48.286Z,24.64
2019-05-23T14:28:56.029Z,24.65
2019-05-23T14:31:12.530Z,24.69
2019-05-23T14:33:28.675Z,24.70
2019-05-23T14:35:37.656Z,24.70
2019-05-23T14:37:47.463Z,24.69
2019-05-23T14:40:01.457Z,24.71
2019-05-23T14:42:30.643Z,24.70
2019-05-23T14:45:09.730Z,24.73
2019-05-23T14:47:38.774Z,24.74
2019-05-23T14:49:53.016Z,24.73
2019-05-23T14:52:34.626Z,24.77
2019-05-23T14:54:47.763Z,24.76
2019-05-23T14:56:55.544Z,24.77
2019-05-23T14:59:02.908Z,24.78
2019-05-23T15:01:11.864Z,24.82
2019-05-23T15:03:19.294Z,24.86
2019-05-23T15:05:26.951Z,24.86
2019-05-23T15:07:35.303Z,24.85
2019-05-23T15:09:43.051Z,24.90
2019-05-23T15:11:56.968Z,24.90
2019-05-23T15:14:05.402Z,24.87
2019-05-23T15:16:13.206Z,24.89
2019-05-23T15:18:20.580Z,24.89
2019-05-23T15:20:28.234Z,24.92
2019-05-23T15:22:35.990Z,24.95
2019-05-23T15:24:43.975Z,25.00
2019-05-23T15:26:51.545Z,24.98
2019-05-23T15:28:58.840Z,24.97
2019-05-23T15:31:08.256Z,24.95
2019-05-23T15:33:15.468Z,24.99
2019-05-23T15:35:23.820Z,24.97
2019-05-23T15:37:31.695Z,24.99
2019-05-23T15:39:39.349Z,25.00
2019-05-23T15:41:46.632Z,25.01
2019-05-23T15:43:53.957Z,25.05
2019-05-23T15:46:01.133Z,25.04
2019-05-23T15:48:08.719Z,25.03
2019-05-23T15:50:18.226Z,25.05
2019-05-23T15:52:59.710Z,25.06
2019-05-23T15:55:15.221Z,25.10
2019-05-23T15:57:33.410Z,25.06
2019-05-23T15:59:59.356Z,25.10
2019-05-23T16:02:17.304Z,25.09
2019-05-23T16:04:24.898Z,25.03
2019-05-23T16:06:33.681Z,25.09
2019-05-23T16:08:41.140Z,25.13
2019-05-23T16:10:49.949Z,25.11
2019-05-23T16:12:57.954Z,25.20
2019-05-23T16:15:05.795Z,25.20
2019-05-23T16:17:13.723Z,25.24
2019-05-23T16:19:21.434Z,25.29
2019-05-23T16:21:30.541Z,25.27
2019-05-23T16:23:38.038Z,25.28
2019-05-23T16:25:45.376Z,25.34
2019-05-23T16:27:53.179Z,25.35
2019-05-23T16:30:00.256Z,25.37
2019-05-23T16:32:07.562Z,25.34
2019-05-23T16:34:14.674Z,25.42
2019-05-23T16:36:22.523Z,25.29
2019-05-23T16:38:29.749Z,25.18
2019-05-23T16:40:37.170Z,25.41
2019-05-23T16:42:45.378Z,25.42
2019-05-23T16:44:53.370Z,25.35
2019-05-23T16:47:13.515Z,25.43
2019-05-23T16:49:20.779Z,25.47
2019-05-23T16:51:28.001Z,25.45
2019-05-23T16:53:37.113Z,25.49
2019-05-23T16:55:57.508Z,25.50
2019-05-23T16:58:11.847Z,25.52
2019-05-23T17:00:38.105Z,25.49
2019-05-23T17:02:52.110Z,25.50
2019-05-23T17:05:18.265Z,25.50
2019-05-23T17:07:53.707Z,25.48
2019-05-23T17:10:14.626Z,25.52
2019-05-23T17:12:36.752Z,25.51
2019-05-23T17:14:52.061Z,25.50
2019-05-23T17:17:15.923Z,25.55
2019-05-23T17:19:48.248Z,25.57
2019-05-23T17:22:01.705Z,25.55
2019-05-23T17:24:25.897Z,25.55
2019-05-23T17:27:03.788Z,25.58
2019-05-23T17:29:24.466Z,25.54
2019-05-23T17:31:35.458Z,25.59
2019-05-23T17:33:42.942Z,25.60
2019-05-23T17:35:50.829Z,25.60
2019-05-23T17:37:58.113Z,25.63
2019-05-23T17:40:28.441Z,25.62
2019-05-23T17:42:56.528Z,25.63
2019-05-23T17:45:04.791Z,25.37
2019-05-23T17:47:12.040Z,25.49
2019-05-23T17:49:20.116Z,25.48
2019-05-23T17:51:27.867Z,25.45
2019-05-23T17:53:35.421Z,25.59
2019-05-23T17:55:42.683Z,25.60
2019-05-23T17:57:50.731Z,25.55
2019-05-23T17:59:59.277Z,25.55
2019-05-23T18:02:07.838Z,25.58
2019-05-23T18:04:15.870Z,25.60
2019-05-23T18:06:24.133Z,25.63
2019-05-23T18:08:32.312Z,25.67
2019-05-23T18:10:45.584Z,25.79
2019-05-23T18:12:49.643Z,25.70
2019-05-23T18:14:57.067Z,25.77
2019-05-23T18:17:06.849Z,25.72
2019-05-23T18:19:14.848Z,25.70
2019-05-23T18:21:22.260Z,25.69
2019-05-23T18:23:30.212Z,25.73
2019-05-23T18:25:37.870Z,25.75
2019-05-23T18:27:47.170Z,25.78
2019-05-23T18:29:55.581Z,25.77
2019-05-23T18:32:05.309Z,25.86
2019-05-23T18:34:14.842Z,25.81
2019-05-23T18:36:22.701Z,25.80
2019-05-23T18:38:31.228Z,25.85
2019-05-23T18:41:01.689Z,25.88
2019-05-23T18:42:54.812Z,25.86
2019-05-23T18:45:02.059Z,25.83
2019-05-23T18:47:14.734Z,25.70
2019-05-23T18:49:23.390Z,25.82
2019-05-23T18:51:31.484Z,25.83
2019-05-23T18:53:38.868Z,25.80
2019-05-23T18:55:46.208Z,25.91
2019-05-23T18:57:54.322Z,25.93
2019-05-23T19:00:01.922Z,25.97
2019-05-23T19:02:18.729Z,25.98
2019-05-23T19:04:25.968Z,25.92
2019-05-23T19:06:34.578Z,25.93
2019-05-23T19:08:43.852Z,25.95
2019-05-23T19:10:51.012Z,25.99
2019-05-23T19:13:01.203Z,26.00
2019-05-23T19:15:10.830Z,26.00
2019-05-23T19:17:19.169Z,26.00
2019-05-23T19:19:26.714Z,25.97
2019-05-23T19:21:35.034Z,25.96
2019-05-23T19:23:42.447Z,25.96
2019-05-23T19:25:50.525Z,25.91
2019-05-23T19:27:57.980Z,25.93
2019-05-23T19:30:06.167Z,25.96
2019-05-23T19:32:14.337Z,26.00
2019-05-23T19:34:21.818Z,26.01
2019-05-23T19:36:29.222Z,26.01
2019-05-23T19:38:38.144Z,26.04
2019-05-23T19:40:46.455Z,26.05
2019-05-23T19:42:54.044Z,26.17
2019-05-23T19:45:02.340Z,26.18
2019-05-23T19:47:11.139Z,26.20
2019-05-23T19:49:19.931Z,26.09
2019-05-23T19:51:27.438Z,26.15
2019-05-23T19:53:56.430Z,26.20
2019-05-23T19:56:04.489Z,26.30
2019-05-23T19:58:12.044Z,26.20
2019-05-23T20:00:21.274Z,26.17
2019-05-23T20:02:42.540Z,26.17
2019-05-23T20:05:00.268Z,26.09
2019-05-23T20:07:08.464Z,26.16
2019-05-23T20:09:19.915Z,26.16
2019-05-23T20:11:27.341Z,26.21
2019-05-23T20:13:34.801Z,26.24
2019-05-23T20:15:45.626Z,26.27
2019-05-23T20:17:52.210Z,26.30
2019-05-23T20:20:00.158Z,26.27
2019-05-23T20:22:24.237Z,26.30
2019-05-23T20:24:57.243Z,26.10
2019-05-23T20:27:06.158Z,26.20
2019-05-23T20:29:13.667Z,26.31
2019-05-23T20:31:21.199Z,26.30
2019-05-23T20:33:28.698Z,26.28
2019-05-23T20:35:35.969Z,26.24
2019-05-23T20:37:43.875Z,26.25
2019-05-23T20:39:51.172Z,26.30
2019-05-23T20:42:10.940Z,26.31
2019-05-23T20:44:07.455Z,26.27
2019-05-23T20:46:15.908Z,26.32
2019-05-23T20:48:24.318Z,26.28
2019-05-23T20:50:32.594Z,26.26
2019-05-23T20:52:39.948Z,26.31
2019-05-23T20:54:47.984Z,26.24
2019-05-23T20:56:55.484Z,26.24
2019-05-23T20:59:03.673Z,26.23
2019-05-23T21:01:29.261Z,26.24
2019-05-23T21:03:37.145Z,26.23
2019-05-23T21:05:44.315Z,26.25
2019-05-23T21:07:51.692Z,26.19
2019-05-23T21:10:00.278Z,26.15
2019-05-23T21:12:08.142Z,26.28
2019-05-23T21:14:17.273Z,26.27
2019-05-23T21:16:24.691Z,26.26
2019-05-23T21:18:32.703Z,26.30
2019-05-23T21:20:41.760Z,26.29
2019-05-23T21:22:49.146Z,26.38
2019-05-23T21:24:56.491Z,26.35
2019-05-23T21:27:03.730Z,26.33
2019-05-23T21:29:11.746Z,26.27
2019-05-23T21:31:23.869Z,26.28
2019-05-23T21:33:31.848Z,26.22
2019-05-23T21:35:40.168Z,26.26
2019-05-23T21:37:47.731Z,26.25
2019-05-23T21:39:55.651Z,26.27
2019-05-23T21:42:03.104Z,26.27
2019-05-23T21:44:10.547Z,26.25
2019-05-23T21:46:18.257Z,26.23
2019-05-23T21:48:25.721Z,26.18
2019-05-23T21:50:33.480Z,26.21
2019-05-23T21:52:41.811Z,26.19
2019-05-23T21:54:49.443Z,26.20
2019-05-23T21:56:59.323Z,26.20
2019-05-23T21:59:06.813Z,26.20
2019-05-23T22:01:34.597Z,26.22
2019-05-23T22:03:43.735Z,26.26
2019-05-23T22:05:51.155Z,26.21
2019-05-23T22:08:00.051Z,26.24
2019-05-23T22:10:08.513Z,26.25
2019-05-23T22:12:16.533Z,26.21
2019-05-23T22:14:24.818Z,26.26
2019-05-23T22:16:32.130Z,26.25
2019-05-23T22:18:39.591Z,26.25
2019-05-23T22:20:47.289Z,26.26
2019-05-23T22:22:54.365Z,26.27
2019-05-23T22:25:02.854Z,26.26
2019-05-23T22:27:11.121Z,26.27
2019-05-23T22:29:18.410Z,26.25
2019-05-23T22:31:26.657Z,26.22
2019-05-23T22:33:37.504Z,26.24
2019-05-23T22:35:44.844Z,26.26
2019-05-23T22:38:07.407Z,26.19
2019-05-23T22:40:14.709Z,26.18
2019-05-23T22:42:22.260Z,26.25
2019-05-23T22:44:29.588Z,26.26
2019-05-23T22:46:37.203Z,26.29
2019-05-23T22:48:44.355Z,26.28
2019-05-23T22:50:51.644Z,26.30
2019-05-23T22:52:59.419Z,26.31
2019-05-23T22:55:06.727Z,26.28
2019-05-23T22:57:14.409Z,26.29
2019-05-23T22:59:22.442Z,26.31
2019-05-23T23:01:30.914Z,26.34
2019-05-23T23:03:38.328Z,26.33
2019-05-23T23:05:45.632Z,26.22
2019-05-23T23:07:53.302Z,26.05
2019-05-23T23:10:01.167Z,26.04
2019-05-23T23:12:08.476Z,26.00
2019-05-23T23:14:15.682Z,25.80
2019-05-23T23:16:23.027Z,26.03
2019-05-23T23:18:30.124Z,26.00
2019-05-23T23:20:40.404Z,26.03
2019-05-23T23:22:49.349Z,25.99
2019-05-23T23:24:58.198Z,26.01
2019-05-23T23:27:07.537Z,25.95
2019-05-23T23:29:14.920Z,26.01
2019-05-23T23:32:13.964Z,25.84
2019-05-23T23:34:21.205Z,25.89
2019-05-23T23:36:29.246Z,25.99
2019-05-23T23:38:36.522Z,25.81
2019-05-23T23:40:44.144Z,25.63
2019-05-23T23:42:51.312Z,25.65
2019-05-23T23:45:16.392Z,25.51
2019-05-23T23:47:41.957Z,25.45
2019-05-23T23:50:07.133Z,25.44
2019-05-23T23:52:32.424Z,25.30
2019-05-23T23:54:57.933Z,25.16
2019-05-23T23:57:24.194Z,25.11
2019-05-23T23:59:31.638Z,25.06
